Flight Track Log - Related Links

Times and Time Zones

All times are in EST time to prevent confusion due to time zone crossing. See the DAL1515 flight status page for this flight to view local times or setup timezone preferences in your user account.

Time Position Orientation Groundspeed Altitude Reporting Facility
EST Latitude Longitude Course Direction KTS MPH feet Rate Location/Type
Sun 07:19:57 PM 33.6478 -84.3733 352° North 447 514 2,700  Level Atlanta Center
Sun 07:20:57 PM 33.6603 -84.2908 80° East 333 383 4,900 2,650 Climbing Atlanta Center
Sun 07:21:57 PM 33.6794 -84.2086 74° East 272 313 8,000 2,550 Climbing Atlanta Center
Sun 07:22:00 PM 33.9274 -84.1406 North  Level Estimated
Sun 07:22:57 PM 33.7442 -84.1711 26° Northeast 292 336 10,000  Level Atlanta Center
Sun 07:23:00 PM 34.0242 -84.0444 11° North  Level Estimated
Sun 07:23:57 PM 33.8275 -84.1814 354° North 284 327 10,100  Level Atlanta Center
Sun 07:24:00 PM 34.1482 -84.0667 352° North  Level FlightAware Approximate
Sun 07:24:57 PM 33.9108 -84.2417 329° Northwest 324 373 11,800  Level Atlanta Center
Sun 07:25:00 PM 34.2722 -84.0891 352° North  Level FlightAware Approximate
Sun 07:25:57 PM 34.0111 -84.2769 344° North 350 403 14,300  Level Atlanta Center
Sun 07:26:57 PM 34.1197 -84.2797 359° North 369 425 16,800 2,150 Climbing Atlanta Center
Sun 07:27:57 PM 34.2406 -84.2825 359° North 411 473 18,600 1,900 Climbing Atlanta Center
Sun 07:28:57 PM 34.3597 -84.2653 North 423 487 20,600 1,750 Climbing Atlanta Center
Sun 07:29:57 PM 34.4850 -84.2353 11° North 441 507 22,100 1,800 Climbing Atlanta Center
Sun 07:30:57 PM 34.6081 -84.2053 11° North 453 521 24,200 1,800 Climbing Atlanta Center
Sun 07:31:57 PM 34.7314 -84.1803 North 448 516 25,700 1,650 Climbing Atlanta Center
Sun 07:32:57 PM 34.8586 -84.1503 11° North 448 516 27,500 2,500 Climbing Atlanta Center
Sun 07:33:57 PM 34.9797 -84.1200 12° North 453 521 30,700 2,100 Climbing Atlanta Center
Sun 07:34:57 PM 35.0922 -84.0922 11° North 430 495 31,700 850 Climbing Atlanta Center
Sun 07:35:57 PM 35.2092 -84.0642 11° North 417 480 32,400 650 Climbing Atlanta Center
Sun 07:36:57 PM 35.3261 -84.0361 11° North 417 480 33,000 600 Climbing Atlanta Center
Sun 07:37:57 PM 35.4450 -84.0081 11° North 427 491 33,600 650 Climbing Atlanta Center
Sun 07:38:57 PM 35.5639 -83.9775 12° North 433 498 34,300 700 Climbing Atlanta Center
Sun 07:39:57 PM 35.6847 -83.9467 12° North 433 498 35,000 350 Climbing Atlanta Center
Sun 07:40:57 PM 35.8017 -83.9183 11° North 433 498 35,000  Level Atlanta Center
Sun 07:41:57 PM 35.9225 -83.8797 15° North 433 498 35,000  Level Atlanta Center
Sun 07:42:57 PM 36.0372 -83.8128 25° Northeast 439 505 35,000  Level Atlanta Center
Sun 07:43:57 PM 36.1497 -83.7406 27° Northeast 444 511 35,000  Level Atlanta Center
Sun 07:44:57 PM 36.2600 -83.6653 29° Northeast 444 511 35,000  Level Atlanta Center
Sun 07:45:57 PM 36.3536 -83.5800 36° Northeast 454 522 35,000  Level Atlanta Center
Sun 07:47:10 PM 36.4953 -83.4517 36° Northeast 466 536 35,000  Level Indianapolis Center
Sun 07:48:12 PM 36.6039 -83.3636 33° Northeast 462 532 35,000  Level Indianapolis Center
Sun 07:49:13 PM 36.7092 -83.2672 36° Northeast 464 534 35,000  Level Indianapolis Center
Sun 07:50:15 PM 36.8144 -83.1722 36° Northeast 464 534 35,000  Level Indianapolis Center
Sun 07:51:17 PM 36.9206 -83.0772 36° Northeast 463 533 35,000  Level Indianapolis Center
Sun 07:52:18 PM 37.0306 -82.9794 35° Northeast 471 542 35,000  Level Indianapolis Center
Sun 07:53:20 PM 37.1364 -82.8822 36° Northeast 465 535 35,000  Level Indianapolis Center
Sun 07:54:22 PM 37.2411 -82.7889 35° Northeast 460 529 35,000  Level Indianapolis Center
Sun 07:55:23 PM 37.3464 -82.6950 35° Northeast 462 532 35,000  Level Indianapolis Center
Sun 07:56:25 PM 37.4503 -82.6014 36° Northeast 459 528 35,000  Level Indianapolis Center
Sun 07:57:26 PM 37.5717 -82.4939 35° Northeast 456 525 35,000  Level Indianapolis Center
Sun 07:58:28 PM 37.6747 -82.3992 36° Northeast 457 526 35,000  Level Indianapolis Center
Sun 07:59:29 PM 37.7786 -82.3058 35° Northeast 456 525 35,000  Level Indianapolis Center
Sun 08:00:31 PM 37.8828 -82.2106 36° Northeast 458 527 35,000  Level Indianapolis Center
Sun 08:01:33 PM 37.9897 -82.1092 37° Northeast 462 532 35,000  Level Indianapolis Center
Sun 08:02:34 PM 38.0928 -82.0114 37° Northeast 462 532 35,000  Level Indianapolis Center
Sun 08:03:36 PM 38.1975 -81.9142 36° Northeast 463 533 35,000  Level Indianapolis Center
Sun 08:04:38 PM 38.3000 -81.8181 36° Northeast 459 528 35,000  Level Indianapolis Center
Sun 08:05:39 PM 38.3969 -81.7069 42° Northeast 466 536 35,000  Level Indianapolis Center
Sun 08:06:41 PM 38.4836 -81.5806 49° Northeast 474 545 35,000  Level Indianapolis Center
Sun 08:07:42 PM 38.5864 -81.4300 49° Northeast 476 548 35,000  Level Indianapolis Center
Sun 08:08:44 PM 38.6736 -81.3069 48° Northeast 478 550 35,000  Level Indianapolis Center
Sun 08:09:46 PM 38.7606 -81.1822 48° Northeast 475 547 35,000  Level Indianapolis Center
Sun 08:10:47 PM 38.8481 -81.0553 48° Northeast 476 548 35,000  Level Indianapolis Center
Sun 08:11:49 PM 38.9378 -80.9258 48° Northeast 483 556 35,000  Level Indianapolis Center
Sun 08:12:50 PM 39.0247 -80.7989 49° Northeast 478 550 35,000  Level Indianapolis Center
Sun 08:13:52 PM 39.1331 -80.6492 47° Northeast 474 545 35,000  Level Indianapolis Center
Sun 08:14:54 PM 39.2233 -80.5231 47° Northeast 477 549 35,000  Level Indianapolis Center
Sun 08:15:55 PM 39.3311 -80.4325 33° Northeast 457 526 35,000  Level Indianapolis Center
Sun 08:16:57 PM 39.4406 -80.3494 30° Northeast 457 526 35,000  Level Indianapolis Center
Sun 08:17:58 PM 39.5508 -80.2647 31° Northeast 459 528 35,000  Level Indianapolis Center
Sun 08:19:00 PM 39.6589 -80.1808 31° Northeast 454 522 35,000  Level Indianapolis Center
Sun 08:19:31 PM 39.7089 -80.1461 28° Northeast 452 520 35,000  Level Cleveland Center
Sun 08:20:33 PM 39.8369 -80.0394 33° Northeast 457 526 35,000  Level Cleveland Center
Sun 08:21:35 PM 39.9225 -79.9128 49° Northeast 469 540 35,000  Level Cleveland Center
Sun 08:22:37 PM 40.0036 -79.7756 52° Northeast 479 551 35,000  Level Cleveland Center
Sun 08:23:39 PM 40.0828 -79.6372 53° Northeast 481 554 35,000  Level Cleveland Center
Sun 08:24:41 PM 40.1622 -79.4994 53° Northeast 480 552 35,000  Level Cleveland Center
Sun 08:25:43 PM 40.2572 -79.3358 53° Northeast 477 549 35,000  Level Cleveland Center
Sun 08:26:45 PM 40.3344 -79.1975 54° Northeast 474 545 35,000  Level Cleveland Center
Sun 08:27:47 PM 40.4142 -79.0606 53° Northeast 475 547 35,000  Level Cleveland Center
Sun 08:28:49 PM 40.4928 -78.9211 53° Northeast 478 550 35,000  Level Cleveland Center
Sun 08:29:51 PM 40.5767 -78.7428 58° Northeast 483 556 35,000  Level Cleveland Center
Sun 08:30:53 PM 40.6433 -78.5919 60° Northeast 484 557 35,000  Level Cleveland Center
Sun 08:31:55 PM 40.7122 -78.4439 58° Northeast 482 555 35,000  Level Cleveland Center
Sun 08:32:57 PM 40.7811 -78.2939 59° Northeast 484 557 35,000  Level Cleveland Center
Sun 08:33:59 PM 40.8489 -78.1433 59° Northeast 485 558 35,000  Level Cleveland Center
Sun 08:35:01 PM 40.9336 -77.9664 58° Northeast 482 555 35,000 -629 Level Cleveland Center
Sun 08:36:03 PM 41.0136 -77.8331 51° Northeast 470 541 33,700 -1,461 Descending Cleveland Center
Sun 08:36:56 PM 41.0783 -77.7189 53° Northeast 467 537 32,200 -1,327 Descending New York Center
Sun 08:37:56 PM 41.1550 -77.5861 52° Northeast 462 532 31,200 -1,450 Descending New York Center
Sun 08:38:56 PM 41.2353 -77.4536 51° Northeast 457 526 29,300 -1,100 Descending New York Center
Sun 08:39:56 PM 41.3094 -77.3228 53° Northeast 457 526 29,000 -150 Descending New York Center
Sun 08:40:56 PM 41.3875 -77.1892 52° Northeast 457 526 29,000  Level New York Center
Sun 08:41:56 PM 41.4706 -77.0392 54° Northeast 463 533 29,000  Level New York Center
Sun 08:42:56 PM 41.5464 -76.9050 53° Northeast 463 533 29,000  Level New York Center
Sun 08:43:56 PM 41.6239 -76.7706 52° Northeast 463 533 29,000  Level New York Center
Sun 08:44:56 PM 41.6906 -76.6486 54° Northeast 457 526 29,000  Level New York Center
Sun 08:45:56 PM 41.7747 -76.5003 53° Northeast 457 526 29,000  Level New York Center
Sun 08:48:25 PM 41.9517 -76.1886 53° Northeast 455 524 29,000  Level Boston Center
Sun 08:49:25 PM 42.0261 -76.0539 53° Northeast 452 520 29,000 -595 Level Boston Center
Sun 08:50:26 PM 42.1003 -75.9208 53° Northeast 447 514 27,800 -1,869 Descending Boston Center
Sun 08:51:27 PM 42.1725 -75.7903 53° Northeast 439 505 25,200 -1,869 Descending Boston Center
Sun 08:52:28 PM 42.2439 -75.6636 53° Northeast 430 495 24,000 -738 Descending Boston Center
Sun 08:53:29 PM 42.3117 -75.5000 61° Northeast 421 484 23,700 -397 Descending Boston Center
Sun 08:54:29 PM 42.3544 -75.3400 70° East 449 517 23,200 -1,240 Descending Boston Center
Sun 08:55:30 PM 42.3947 -75.1847 71° East 444 511 21,200 -2,164 Descending Boston Center
Sun 08:56:31 PM 42.4339 -75.0356 70° East 428 493 18,800 -1,875 Descending Boston Center
Sun 08:57:22 PM 42.4686 -74.8992 71° East 421 484 17,700 -1,300 Descending Boston Center
Sun 08:57:31 PM 42.4725 -74.8889 63° Northeast 421 484 17,500 -1,750 Descending Boston Center
Sun 08:57:46 PM 42.4839 -74.8436 71° East 414 476 17,000 -1,688 Descending Boston Center
Sun 08:58:35 PM 42.5119 -74.7314 71° East 420 483 15,700 -1,588 Descending Boston Center
Sun 08:58:54 PM 42.5239 -74.6917 68° East 396 456 15,200 -1,770 Descending Boston Center
Sun 08:59:36 PM 42.5522 -74.5811 71° East 399 459 13,900 -1,800 Descending Boston Center
Sun 08:59:54 PM 42.5614 -74.5417 72° East 392 451 13,400 -1,770 Descending Boston Center
Sun 09:00:37 PM 42.5744 -74.4444 80° East 373 429 12,100 -1,869 Descending Boston Center
Sun 09:00:55 PM 42.5722 -74.4058 94° East 351 404 11,500 -1,800 Descending Boston Center
Sun 09:01:37 PM 42.5694 -74.3200 92° East 332 382 10,300 -1,655 Descending Boston Center
Sun 09:01:53 PM 42.5669 -74.2847 95° East 309 356 9,900 -1,475 Descending Boston Center
Sun 09:02:38 PM 42.5647 -74.2097 92° East 296 341 8,800 -1,770 Descending Boston Center
Sun 09:02:54 PM 42.5628 -74.1814 95° East 271 312 8,100 -2,182 Descending Boston Center
Sun 09:03:55 PM 42.5625 -74.0794 90° East 261 300 6,000 -2,019 Descending Boston Center
Sun 09:04:41 PM 42.5636 -74.0042 89° East 263 303 4,500 -1,869 Descending Boston Center
Sun 09:04:56 PM 42.5611 -73.9831 99° East 259 298 4,100 -492 Descending Boston Center
Sun 09:05:42 PM 42.5614 -73.9153 90° East 235 270 4,000 -492 Descending Boston Center
Sun 09:05:57 PM 42.5667 -73.8950 71° East 206 237 3,600 -1,424 Descending Boston Center
Sun 09:06:41 PM 42.5850 -73.8478 62° Northeast 200 230 2,600 -1,065 Descending Boston Center
Sun 09:06:59 PM 42.5936 -73.8314 54° Northeast 184 212 2,500 -98 Descending Boston Center
Sun 09:07:42 PM 42.6225 -73.8103 28° Northeast 165 190 2,500 -414 Level Boston Center
Sun 09:07:57 PM 42.6336 -73.8011 31° Northeast 154 177 2,100 -700 Descending Boston Center
Sun 09:08:42 PM 42.6678 -73.8014 360° North 158 182 1,800 -476 Descending Boston Center
Sun 09:09:00 PM 42.6739 -73.8033 347° North 142 163 1,600 -667 Descending Boston Center
Sun 09:09:45 PM 42.7022 -73.8031 360° North 131 151 1,100 -590 Descending Boston Center
Sun 09:10:01 PM 42.7083 -73.8031 360° North 118 136 1,000 -689 Descending Boston Center
Sun 09:10:46 PM 42.7372 -73.8058 356° North 128 147 400 -453 Descending Boston Center
Sun 09:11:47 PM 42.7717 -73.8094 356° North 128 147 200 -197 Descending Boston Center

Login

Don't have an account? Register now (free) for customized features, flight alerts, and more!